Time;durP1;ratioP1;P1;durP2;ratioP2;P2;SDS_P1;SDS_P2;PMS_P1;PMS_P2;Temp;Humidity;BMP_temperature;BMP_pressure;BME280_temperature;BME280_humidity;BME280_pressure;Samples;Min_cycle;Max_cycle;Signal;HPM_P1;HPM_P2
2024/01/16 00:02:21;;;;;;;0.20;0.20;;;;;;;-2.52;100.00;95614.66;6133839;23;20573;-78
2024/01/16 00:05:07;;;;;;;0.20;0.20;;;;;;;-2.44;100.00;95629.44;6133760;23;20063;-76
2024/01/16 00:07:55;;;;;;;0.20;0.20;;;;;;;-2.46;100.00;95628.84;6132668;23;20017;-78
2024/01/16 00:10:41;;;;;;;0.20;0.20;;;;;;;-2.40;100.00;95630.72;6132885;23;20103;-79
2024/01/16 00:13:27;;;;;;;0.25;0.25;;;;;;;-2.38;100.00;95644.44;6133085;23;20017;-76
2024/01/16 00:16:13;;;;;;;0.20;0.20;;;;;;;-2.37;100.00;95635.56;6132168;23;20017;-76
2024/01/16 00:18:59;;;;;;;0.20;0.20;;;;;;;-2.36;100.00;95640.59;6133210;23;20021;-76
2024/01/16 00:21:48;;;;;;;0.20;0.20;;;;;;;-2.33;100.00;95647.31;6135390;23;20734;-78
2024/01/16 00:24:34;;;;;;;0.20;0.20;;;;;;;-2.33;100.00;95642.88;6135083;23;20429;-76
2024/01/16 00:27:19;;;;;;;0.20;0.20;;;;;;;-2.27;100.00;95636.06;6112121;23;20092;-77
2024/01/16 00:30:06;;;;;;;0.20;0.20;;;;;;;-2.29;100.00;95646.72;6113630;23;20018;-78
2024/01/16 00:32:52;;;;;;;0.20;0.20;;;;;;;-2.33;100.00;95642.88;6134099;23;20267;-75
2024/01/16 00:35:38;;;;;;;0.20;0.20;;;;;;;-2.33;100.00;95636.81;6136105;23;20112;-77
2024/01/16 00:38:24;;;;;;;0.20;0.20;;;;;;;-2.29;100.00;95657.22;6133250;23;20487;-77
2024/01/16 00:41:09;;;;;;;0.20;0.20;;;;;;;-2.29;100.00;95643.28;6135739;23;20060;-78
2024/01/16 00:43:55;;;;;;;0.20;0.20;;;;;;;-2.28;100.00;95650.97;6132460;23;20052;-77
2024/01/16 00:46:41;;;;;;;0.20;0.20;;;;;;;-2.36;100.00;95648.47;6132795;23;20239;-76
2024/01/16 00:49:28;;;;;;;0.20;0.20;;;;;;;-2.26;100.00;95658.63;6131793;23;20026;-76
2024/01/16 00:52:14;;;;;;;0.20;0.20;;;;;;;-2.27;100.00;95664.88;6132991;23;20120;-77
2024/01/16 00:54:59;;;;;;;0.20;0.20;;;;;;;-2.28;100.00;95682.41;6132519;23;20219;-75
2024/01/16 00:57:45;;;;;;;0.20;0.20;;;;;;;-2.28;100.00;95684.22;6113463;23;20029;-77
2024/01/16 01:00:31;;;;;;;0.30;0.30;;;;;;;-2.32;100.00;95672.50;6132573;23;20025;-77
2024/01/16 01:03:17;;;;;;;0.20;0.20;;;;;;;-2.34;100.00;95682.34;6133001;23;20091;-74
2024/01/16 01:06:03;;;;;;;0.20;0.20;;;;;;;-2.26;100.00;95690.09;6131784;23;20431;-77
2024/01/16 01:08:52;;;;;;;0.20;0.20;;;;;;;-2.30;100.00;95692.28;6133318;23;20337;-75
2024/01/16 01:11:38;;;;;;;0.20;0.20;;;;;;;-2.27;100.00;95689.28;6115002;23;20025;-76
2024/01/16 01:14:26;;;;;;;0.10;0.10;;;;;;;-2.27;100.00;95683.22;6132373;23;20122;-75
2024/01/16 01:17:12;;;;;;;0.20;0.20;;;;;;;-2.25;100.00;95696.97;6133523;23;20537;-78
2024/01/16 01:19:58;;;;;;;0.20;0.20;;;;;;;-2.26;100.00;95690.09;6134548;23;20017;-75
2024/01/16 01:22:44;;;;;;;0.20;0.20;;;;;;;-2.30;100.00;95694.91;6134166;23;20026;-76
2024/01/16 01:25:30;;;;;;;0.20;0.20;;;;;;;-2.29;100.00;95683.41;6134338;23;20025;-75
2024/01/16 01:28:16;;;;;;;0.20;0.20;;;;;;;-2.30;100.00;95676.56;6134095;23;20549;-75
2024/01/16 01:31:02;;;;;;;0.20;0.20;;;;;;;-2.27;100.00;95689.28;6132333;23;20040;-76
2024/01/16 01:33:48;;;;;;;0.30;0.30;;;;;;;-2.26;100.00;95690.09;6134846;23;20567;-77
2024/01/16 01:36:34;;;;;;;0.20;0.20;;;;;;;-2.30;100.00;95678.38;6133756;23;20589;-76
2024/01/16 01:39:20;;;;;;;0.20;0.20;;;;;;;-2.30;100.00;95675.75;6133322;23;20528;-76
2024/01/16 01:42:06;;;;;;;0.30;0.30;;;;;;;-2.28;100.00;95699.94;6134043;23;20384;-77
2024/01/16 01:44:52;;;;;;;0.25;0.25;;;;;;;-2.29;100.00;95690.47;6132833;23;20220;-75
2024/01/16 01:47:44;;;;;;;0.20;0.20;;;;;;;-2.25;100.00;95703.03;6132946;23;20026;-76
2024/01/16 01:50:30;;;;;;;0.17;0.17;;;;;;;-2.26;100.00;95705.81;6113413;23;20299;-76
2024/01/16 01:53:16;;;;;;;0.20;0.20;;;;;;;-2.27;100.00;95698.94;6133712;23;20574;-76
2024/01/16 01:56:08;;;;;;;0.20;0.20;;;;;;;-2.22;100.00;95714.13;6133205;23;20440;-75
2024/01/16 01:58:57;;;;;;;0.20;0.20;;;;;;;-2.29;100.00;95707.00;6133398;23;20025;-76
2024/01/16 02:01:42;;;;;;;0.20;0.20;;;;;;;-2.25;100.00;95716.13;6132615;23;20538;-77
2024/01/16 02:04:30;;;;;;;0.20;0.20;;;;;;;-2.19;100.00;95716.38;6133603;23;20210;-75
2024/01/16 02:07:17;;;;;;;0.20;0.20;;;;;;;-2.20;100.00;95723.41;6132756;23;20503;-76
2024/01/16 02:10:04;;;;;;;0.20;0.20;;;;;;;-2.19;100.00;95726.84;6092127;23;20025;-78
2024/01/16 02:12:49;;;;;;;0.20;0.20;;;;;;;-2.21;100.00;95734.09;6132768;23;20017;-75
2024/01/16 02:15:35;;;;;;;0.20;0.20;;;;;;;-2.23;100.00;95725.63;6134081;23;20056;-77
2024/01/16 02:18:21;;;;;;;0.30;0.30;;;;;;;-2.20;100.00;95720.81;6132514;23;20057;-78
2024/01/16 02:21:07;;;;;;;0.20;0.20;;;;;;;-2.18;100.00;95728.47;6132005;23;20127;-76
2024/01/16 02:23:53;;;;;;;0.20;0.20;;;;;;;-2.21;100.00;95729.66;6132698;23;20026;-76
2024/01/16 02:26:39;;;;;;;0.20;0.20;;;;;;;-2.27;100.00;95717.28;6132231;23;20026;-78
2024/01/16 02:29:25;;;;;;;0.20;0.20;;;;;;;-2.21;100.00;95734.09;6113551;23;20021;-76
2024/01/16 02:32:12;;;;;;;0.20;0.20;;;;;;;-2.30;100.00;95731.59;6131802;23;20053;-78
2024/01/16 02:34:58;;;;;;;0.20;0.20;;;;;;;-2.28;100.00;95718.31;6135073;23;20032;-76
2024/01/16 02:37:44;;;;;;;0.30;0.30;;;;;;;-2.34;100.00;95724.28;6134238;23;20034;-76
2024/01/16 02:40:30;;;;;;;0.20;0.20;;;;;;;-2.39;100.00;95722.22;6112980;23;20471;-77
2024/01/16 02:43:16;;;;;;;0.20;0.20;;;;;;;-2.34;100.00;95719.03;6135052;23;20040;-76
2024/01/16 02:46:02;;;;;;;0.20;0.20;;;;;;;-2.36;100.00;95715.81;6136920;23;20151;-76
2024/01/16 02:48:48;;;;;;;0.20;0.20;;;;;;;-2.37;100.00;95728.09;6133954;23;20025;-77
2024/01/16 02:51:34;;;;;;;0.20;0.20;;;;;;;-2.36;100.00;95721.84;6134833;23;20026;-78
2024/01/16 02:54:20;;;;;;;0.20;0.20;;;;;;;-2.37;100.00;95719.41;6133400;23;20029;-75
2024/01/16 02:57:06;;;;;;;0.20;0.20;;;;;;;-2.35;100.00;95718.22;6133588;23;20029;-78
2024/01/16 02:59:51;;;;;;;0.20;0.20;;;;;;;-2.32;100.00;95717.88;6133360;23;20460;-77
2024/01/16 03:02:37;;;;;;;0.20;0.20;;;;;;;-2.31;100.00;95729.97;6133977;23;20021;-78
2024/01/16 03:05:23;;;;;;;0.20;0.20;;;;;;;-2.34;100.00;95721.66;6134173;23;20021;-76
2024/01/16 03:08:09;;;;;;;0.20;0.20;;;;;;;-2.38;100.00;95715.19;6133401;23;20049;-77
2024/01/16 03:10:55;;;;;;;0.20;0.20;;;;;;;-2.44;100.00;95708.06;6134669;23;20025;-75
2024/01/16 03:13:41;;;;;;;0.20;0.20;;;;;;;-2.40;100.00;95725.84;6136553;23;20024;-75
2024/01/16 03:16:27;;;;;;;0.20;0.20;;;;;;;-2.44;100.00;95729.03;6135731;23;20021;-76
2024/01/16 03:19:13;;;;;;;0.20;0.20;;;;;;;-2.40;100.00;95728.47;6134231;23;20017;-77
2024/01/16 03:21:59;;;;;;;0.20;0.20;;;;;;;-2.42;100.00;95719.16;6132093;23;20384;-76
2024/01/16 03:24:45;;;;;;;0.20;0.20;;;;;;;-2.36;100.00;95731.53;6133487;23;20100;-76
2024/01/16 03:27:31;;;;;;;0.20;0.20;;;;;;;-2.34;100.00;95726.91;6135324;23;20025;-77
2024/01/16 03:30:17;;;;;;;0.20;0.20;;;;;;;-2.46;100.00;95723.16;6135023;23;20641;-75
2024/01/16 03:33:03;;;;;;;0.20;0.20;;;;;;;-2.45;100.00;95730.03;6132481;23;20300;-78
2024/01/16 03:35:49;;;;;;;0.20;0.20;;;;;;;-2.49;100.00;95732.22;6134049;23;20029;-76
2024/01/16 03:38:38;;;;;;;0.20;0.20;;;;;;;-2.46;100.00;95739.69;6134274;23;20036;-75
2024/01/16 03:41:23;;;;;;;0.20;0.20;;;;;;;-2.46;100.00;95726.59;6113967;23;20017;-76
2024/01/16 03:44:09;;;;;;;0.20;0.20;;;;;;;-2.40;100.00;95730.28;6134303;23;20469;-77
2024/01/16 03:46:55;;;;;;;0.20;0.20;;;;;;;-2.35;100.00;95727.91;6134684;23;20017;-75
2024/01/16 03:49:41;;;;;;;0.20;0.20;;;;;;;-2.32;100.00;95735.41;6134135;23;20057;-78
2024/01/16 03:52:27;;;;;;;0.20;0.20;;;;;;;-2.32;100.00;95732.78;6115459;23;20088;-75
2024/01/16 03:55:13;;;;;;;0.20;0.20;;;;;;;-2.33;100.00;95723.31;6132884;23;20583;-75
2024/01/16 03:57:58;;;;;;;0.20;0.20;;;;;;;-2.36;100.00;95734.94;6133401;23;20037;-75
2024/01/16 04:00:44;;;;;;;0.20;0.20;;;;;;;-2.39;100.00;95729.28;6133211;23;20484;-77
2024/01/16 04:03:30;;;;;;;0.20;0.20;;;;;;;-2.37;100.00;95725.47;6134249;23;20035;-77
2024/01/16 04:06:17;;;;;;;0.20;0.20;;;;;;;-2.47;100.00;95722.34;6135255;23;20112;-77
2024/01/16 04:09:04;;;;;;;0.20;0.20;;;;;;;-2.41;100.00;95741.75;6134169;23;20025;-77
2024/01/16 04:11:50;;;;;;;0.20;0.20;;;;;;;-2.42;100.00;95742.75;6133700;23;20842;-76
2024/01/16 04:14:36;;;;;;;0.20;0.20;;;;;;;-2.42;100.00;95738.31;6133851;23;20115;-77
2024/01/16 04:17:22;;;;;;;0.20;0.20;;;;;;;-2.33;100.00;95736.41;6133185;23;20249;-75
2024/01/16 04:20:09;;;;;;;0.20;0.20;;;;;;;-2.34;100.00;95742.63;6132134;23;20026;-75
2024/01/16 04:22:55;;;;;;;0.20;0.20;;;;;;;-2.31;100.00;95735.22;6134519;23;20022;-78
2024/01/16 04:25:40;;;;;;;0.20;0.20;;;;;;;-2.30;100.00;95736.03;6133623;23;20025;-78
2024/01/16 04:28:26;;;;;;;0.20;0.20;;;;;;;-2.29;100.00;95722.72;6134363;23;20028;-77
2024/01/16 04:31:13;;;;;;;0.20;0.20;;;;;;;-2.22;100.00;95737.72;6134431;23;20021;-76
2024/01/16 04:33:59;;;;;;;0.20;0.20;;;;;;;-2.25;100.00;95729.25;6130313;23;20105;-76
2024/01/16 04:36:44;;;;;;;0.20;0.20;;;;;;;-2.16;100.00;95740.41;6133013;23;20060;-78
2024/01/16 04:39:31;;;;;;;0.20;0.20;;;;;;;-2.27;100.00;95736.47;6134086;23;20475;-77
2024/01/16 04:42:20;;;;;;;0.20;0.20;;;;;;;-2.18;100.00;95734.53;6132497;23;20022;-78
2024/01/16 04:45:09;;;;;;;0.20;0.20;;;;;;;-2.18;100.00;95729.28;6132471;23;20061;-77
2024/01/16 04:47:55;;;;;;;0.20;0.20;;;;;;;-2.29;100.00;95735.84;6133763;23;20053;-78
2024/01/16 04:50:41;;;;;;;0.20;0.20;;;;;;;-2.18;100.00;95737.16;6134328;23;20056;-76
2024/01/16 04:53:27;;;;;;;0.20;0.20;;;;;;;-2.17;100.00;95733.56;6113764;23;20021;-76
2024/01/16 04:56:12;;;;;;;0.20;0.20;;;;;;;-2.19;100.00;95735.53;6131886;23;20614;-76
2024/01/16 04:58:58;;;;;;;0.20;0.20;;;;;;;-2.15;100.00;95741.22;6134062;23;20558;-76
2024/01/16 05:01:44;;;;;;;0.20;0.20;;;;;;;-2.18;100.00;95742.38;6133710;23;20047;-78
2024/01/16 05:04:30;;;;;;;0.20;0.20;;;;;;;-2.14;100.00;95748.91;6137075;23;20489;-76
2024/01/16 05:07:16;;;;;;;0.20;0.20;;;;;;;-2.11;100.00;95751.13;6135468;23;20028;-75
2024/01/16 05:10:02;;;;;;;0.20;0.20;;;;;;;-2.21;100.00;95755.88;6134657;23;20029;-76
2024/01/16 05:12:48;;;;;;;0.20;0.20;;;;;;;-2.30;100.00;95754.38;6135031;23;20061;-76
2024/01/16 05:15:34;;;;;;;0.20;0.20;;;;;;;-2.23;100.00;95747.41;6135321;23;20278;-76
2024/01/16 05:18:20;;;;;;;0.20;0.20;;;;;;;-2.29;100.00;95748.13;6136865;23;20233;-76
2024/01/16 05:21:07;;;;;;;0.20;0.20;;;;;;;-2.33;100.00;95746.91;6135125;23;20021;-76
2024/01/16 05:23:53;;;;;;;0.10;0.10;;;;;;;-2.33;100.00;95736.41;6135832;23;20055;-76
2024/01/16 05:26:39;;;;;;;0.20;0.20;;;;;;;-2.33;100.00;95733.78;6136347;23;20381;-78
2024/01/16 05:29:25;;;;;;;0.17;0.17;;;;;;;-2.23;100.00;95742.16;6113404;23;20045;-77
2024/01/16 05:32:11;;;;;;;0.20;0.20;;;;;;;-2.29;100.00;95738.47;6136108;23;20036;-79
2024/01/16 05:34:57;;;;;;;0.20;0.20;;;;;;;-2.34;100.00;95735.56;6137205;23;20025;-78
2024/01/16 05:37:43;;;;;;;0.20;0.20;;;;;;;-2.21;100.00;95736.72;6136994;23;20053;-78
2024/01/16 05:40:29;;;;;;;0.20;0.20;;;;;;;-2.31;100.00;95740.47;6136900;23;20025;-78
2024/01/16 05:43:15;;;;;;;0.20;0.20;;;;;;;-2.29;100.00;95733.22;6135057;23;20022;-77
2024/01/16 05:46:00;;;;;;;0.10;0.10;;;;;;;-2.22;100.00;95738.53;6134630;23;20445;-75
2024/01/16 05:48:47;;;;;;;0.20;0.20;;;;;;;-2.22;100.00;95737.72;6134789;23;20480;-76
2024/01/16 05:51:35;;;;;;;0.20;0.20;;;;;;;-2.15;100.00;95744.66;6137291;23;20467;-75
2024/01/16 05:54:21;;;;;;;0.22;0.22;;;;;;;-2.31;100.00;95729.97;6135919;23;20484;-76
2024/01/16 05:57:06;;;;;;;0.20;0.20;;;;;;;-2.20;100.00;95730.47;6136317;23;20029;-75
2024/01/16 05:59:52;;;;;;;0.20;0.20;;;;;;;-2.14;100.00;95740.22;6136641;23;20056;-77
2024/01/16 06:02:38;;;;;;;0.20;0.20;;;;;;;-2.23;100.00;95728.25;6107890;23;20029;-75
2024/01/16 06:05:24;;;;;;;0.20;0.20;;;;;;;-2.28;100.00;95726.16;6107469;23;20030;-76
2024/01/16 06:08:10;;;;;;;0.20;0.20;;;;;;;-2.26;100.00;95726.78;6105936;23;20018;-76
2024/01/16 06:10:56;;;;;;;0.20;0.20;;;;;;;-2.28;100.00;95721.72;6104954;23;20097;-75
2024/01/16 06:13:42;;;;;;;0.20;0.20;;;;;;;-2.24;100.00;95727.44;6105768;23;20026;-77
2024/01/16 06:16:27;;;;;;;0.20;0.20;;;;;;;-2.16;100.00;95724.69;6109612;23;20378;-76
2024/01/16 06:19:14;;;;;;;0.30;0.30;;;;;;;-2.20;100.00;95722.59;6108017;23;20030;-75
2024/01/16 06:22:00;;;;;;;0.20;0.20;;;;;;;-2.24;100.00;95719.56;6106763;23;20353;-76
2024/01/16 06:24:46;;;;;;;0.28;0.28;;;;;;;-2.23;100.00;95721.19;6088920;23;20025;-78
2024/01/16 06:27:32;;;;;;;0.20;0.20;;;;;;;-2.26;100.00;95732.88;6108275;23;20229;-75
2024/01/16 06:30:18;;;;;;;0.20;0.20;;;;;;;-2.26;100.00;95721.53;6110840;23;20025;-77
2024/01/16 06:33:04;;;;;;;0.20;0.20;;;;;;;-2.23;100.00;95723.81;6115237;23;20021;-77
2024/01/16 06:35:50;;;;;;;0.20;0.20;;;;;;;-2.22;100.00;95733.28;6139948;23;20239;-77
2024/01/16 06:38:39;;;;;;;0.20;0.20;;;;;;;-2.27;100.00;95725.16;6137411;23;20424;-76
2024/01/16 06:41:25;;;;;;;0.20;0.20;;;;;;;-2.29;100.00;95721.94;6136272;23;20021;-78
2024/01/16 06:44:11;;;;;;;0.20;0.20;;;;;;;-2.25;100.00;95726.63;6137439;23;20555;-76
2024/01/16 06:46:57;;;;;;;0.13;0.13;;;;;;;-2.19;100.00;95722.41;6116052;23;20603;-76
2024/01/16 06:49:43;;;;;;;0.20;0.20;;;;;;;-2.27;100.00;95707.63;6136839;23;20021;-79
2024/01/16 06:52:29;;;;;;;0.20;0.20;;;;;;;-2.28;100.00;95720.91;6136619;23;20064;-77
2024/01/16 06:55:15;;;;;;;0.20;0.20;;;;;;;-2.29;100.00;95716.69;6138712;23;20099;-78
2024/01/16 06:58:00;;;;;;;0.20;0.20;;;;;;;-2.23;100.00;95718.56;6136668;23;20029;-77
2024/01/16 07:00:47;;;;;;;0.20;0.20;;;;;;;-2.19;100.00;95721.59;6135893;23;20017;-78
2024/01/16 07:03:33;;;;;;;0.20;0.20;;;;;;;-2.19;100.00;95722.41;6136280;23;20100;-76
2024/01/16 07:06:19;;;;;;;0.20;0.20;;;;;;;-2.18;100.00;95715.38;6137491;23;20021;-76
2024/01/16 07:09:05;;;;;;;0.30;0.30;;;;;;;-2.27;100.00;95707.63;6116132;23;20025;-76
2024/01/16 07:11:51;;;;;;;0.20;0.20;;;;;;;-2.26;100.00;95716.28;6136071;23;20033;-78
2024/01/16 07:14:37;;;;;;;0.20;0.20;;;;;;;-2.18;100.00;95718.78;6137972;23;20022;-76
2024/01/16 07:17:23;;;;;;;0.20;0.20;;;;;;;-2.12;100.00;95727.72;6137459;23;20051;-76
2024/01/16 07:20:10;;;;;;;0.20;0.20;;;;;;;-2.09;100.00;95730.00;6137655;23;20032;-77
2024/01/16 07:22:56;;;;;;;0.20;0.20;;;;;;;-2.12;100.00;95736.41;6137416;23;20022;-77
2024/01/16 07:25:41;;;;;;;0.20;0.20;;;;;;;-2.14;100.00;95733.16;6138370;23;20026;-76
2024/01/16 07:28:27;;;;;;;0.22;0.22;;;;;;;-2.12;100.00;95735.59;6140056;23;20457;-76
2024/01/16 07:31:14;;;;;;;0.20;0.20;;;;;;;-2.18;100.00;95750.25;6139274;23;20031;-77
2024/01/16 07:34:00;;;;;;;0.30;0.30;;;;;;;-2.33;100.00;95752.13;6136356;23;20026;-76
2024/01/16 07:36:46;;;;;;;0.28;0.28;;;;;;;-2.31;100.00;95747.50;6136927;23;20026;-77
2024/01/16 07:39:32;;;;;;;0.20;0.20;;;;;;;-2.29;100.00;95762.03;6138355;23;20551;-77
2024/01/16 07:42:17;;;;;;;0.20;0.20;;;;;;;-2.39;100.00;95755.50;6138837;23;20496;-74
2024/01/16 07:45:04;;;;;;;0.20;0.20;;;;;;;-2.39;100.00;95756.31;6116577;23;20025;-77
2024/01/16 07:47:50;;;;;;;0.20;0.20;;;;;;;-2.39;100.00;95761.53;6137094;23;20642;-75
2024/01/16 07:50:36;;;;;;;0.20;0.20;;;;;;;-2.35;100.00;95756.72;6137723;23;20452;-75
2024/01/16 07:53:22;;;;;;;0.20;0.20;;;;;;;-2.41;100.00;95765.31;6139329;23;20104;-78
2024/01/16 07:56:09;;;;;;;0.20;0.20;;;;;;;-2.45;100.00;95774.56;6138524;23;20028;-76
2024/01/16 07:58:54;;;;;;;0.20;0.20;;;;;;;-2.46;100.00;95778.19;6135649;23;20314;-76
2024/01/16 08:01:40;;;;;;;0.20;0.20;;;;;;;-2.44;100.00;95774.38;6137734;23;20026;-79
2024/01/16 08:04:29;;;;;;;0.20;0.20;;;;;;;-2.44;100.00;95781.44;6136871;23;20219;-75
2024/01/16 08:07:14;;;;;;;0.20;0.20;;;;;;;-2.44;100.00;95786.66;6137626;23;20036;-77
2024/01/16 08:10:00;;;;;;;0.20;0.20;;;;;;;-2.53;100.00;95778.91;6139575;23;20527;-78
2024/01/16 08:12:46;;;;;;;0.20;0.20;;;;;;;-2.58;100.00;95768.16;6135125;23;20021;-78
2024/01/16 08:15:32;;;;;;;0.20;0.20;;;;;;;-2.69;100.00;95771.25;6134741;23;20025;-77
2024/01/16 08:18:18;;;;;;;0.20;0.20;;;;;;;-2.59;100.00;95776.22;6136411;23;20079;-79
2024/01/16 08:21:04;;;;;;;0.20;0.20;;;;;;;-2.54;100.00;95777.28;6137596;23;20021;-79
2024/01/16 08:23:50;;;;;;;0.20;0.20;;;;;;;-2.49;100.00;95783.78;6136683;23;20021;-76
2024/01/16 08:26:36;;;;;;;0.20;0.20;;;;;;;-2.43;100.00;95780.44;6136451;23;20404;-76
2024/01/16 08:29:22;;;;;;;0.20;0.20;;;;;;;-2.46;100.00;95788.66;6137599;23;20028;-76
2024/01/16 08:32:08;;;;;;;0.20;0.20;;;;;;;-2.34;100.00;95793.22;6133999;23;20028;-77
2024/01/16 08:34:54;;;;;;;0.20;0.20;;;;;;;-2.27;100.00;95795.94;6135143;23;20643;-77
2024/01/16 08:37:40;;;;;;;0.20;0.20;;;;;;;-2.16;100.00;95790.22;6138813;23;20026;-76
2024/01/16 08:40:25;;;;;;;0.20;0.20;;;;;;;-2.07;100.00;95794.34;6139279;23;20168;-76
2024/01/16 08:43:12;;;;;;;0.20;0.20;;;;;;;-2.02;100.00;95789.38;6112632;23;20029;-76
2024/01/16 08:45:58;;;;;;;0.20;0.20;;;;;;;-1.99;100.00;95782.94;6136876;23;20040;-76
2024/01/16 08:48:44;;;;;;;0.20;0.20;;;;;;;-2.05;100.00;95792.34;6137249;23;20025;-78
2024/01/16 08:51:29;;;;;;;0.20;0.20;;;;;;;-2.00;100.00;95774.25;6136854;23;20022;-75
2024/01/16 08:54:15;;;;;;;0.20;0.20;;;;;;;-1.82;100.00;95784.31;6139135;23;20028;-78
2024/01/16 08:57:02;;;;;;;0.22;0.22;;;;;;;-1.81;100.00;95787.72;6135253;23;20582;-77
2024/01/16 08:59:48;;;;;;;0.20;0.20;;;;;;;-1.81;100.00;95790.34;6136483;23;20334;-76
2024/01/16 09:02:33;;;;;;;0.20;0.20;;;;;;;-1.56;100.00;95803.91;6135304;23;20384;-79
2024/01/16 09:05:25;;;;;;;0.22;0.22;;;;;;;-1.31;100.00;95799.06;6137321;23;20294;-77
2024/01/16 09:08:11;;;;;;;0.20;0.20;;;;;;;-1.44;100.00;95792.72;6137544;23;20593;-77
2024/01/16 09:10:57;;;;;;;0.30;0.30;;;;;;;-1.36;100.00;95806.69;6136869;23;20018;-77
2024/01/16 09:13:43;;;;;;;0.22;0.22;;;;;;;-1.26;100.00;95801.91;6137213;23;20021;-78
2024/01/16 09:16:29;;;;;;;0.20;0.20;;;;;;;-1.35;100.00;95797.81;6138628;23;20028;-77
2024/01/16 09:19:15;;;;;;;0.20;0.20;;;;;;;-0.95;100.00;95809.41;6139163;23;20025;-77
2024/01/16 09:22:02;;;;;;;0.20;0.20;;;;;;;-0.73;100.00;95803.09;6113406;23;20116;-78
2024/01/16 09:24:48;;;;;;;0.30;0.30;;;;;;;-0.63;100.00;95806.16;6139255;23;20026;-78
2024/01/16 09:27:34;;;;;;;0.30;0.30;;;;;;;-0.56;100.00;95804.38;6137312;23;20022;-77
2024/01/16 09:30:22;;;;;;;0.20;0.20;;;;;;;-0.68;100.00;95818.28;6136792;23;20376;-77
2024/01/16 09:33:10;;;;;;;0.20;0.20;;;;;;;-1.09;100.00;95808.50;6134852;23;20523;-78
2024/01/16 09:35:56;;;;;;;0.20;0.20;;;;;;;-1.15;100.00;95804.03;6133884;23;20092;-78
2024/01/16 09:38:42;;;;;;;0.20;0.20;;;;;;;-1.15;100.00;95810.09;6137690;23;20029;-77
2024/01/16 09:41:28;;;;;;;0.20;0.20;;;;;;;-0.97;100.00;95809.63;6138921;23;20045;-77
2024/01/16 09:44:14;;;;;;;0.20;0.20;;;;;;;-1.07;100.00;95821.47;6136838;23;20045;-78
2024/01/16 09:47:01;;;;;;;0.20;0.20;;;;;;;-1.17;100.00;95817.38;6115284;23;20280;-79
2024/01/16 09:49:48;;;;;;;0.30;0.30;;;;;;;-1.48;100.00;95822.97;6114680;23;20025;-78
2024/01/16 09:52:34;;;;;;;0.20;0.20;;;;;;;-1.03;100.00;95817.44;6118036;23;20036;-78
2024/01/16 09:55:21;;;;;;;0.30;0.30;;;;;;;-0.51;100.00;95814.31;6113782;23;20069;-77
2024/01/16 09:58:12;;;;;;;0.30;0.30;;;;;;;0.15;100.00;95813.75;6094500;23;20052;-77
2024/01/16 10:00:58;;;;;;;0.25;0.25;;;;;;;0.31;100.00;95810.75;6136475;23;20782;-78
2024/01/16 10:03:45;;;;;;;0.20;0.20;;;;;;;1.35;100.00;95810.94;6092043;23;20053;-77
2024/01/16 10:06:33;;;;;;;0.20;0.20;;;;;;;1.26;100.00;95803.47;6113183;23;20885;-76
2024/01/16 10:09:19;;;;;;;0.20;0.20;;;;;;;0.51;100.00;95814.22;6088904;23;20397;-77
2024/01/16 10:12:08;;;;;;;0.20;0.20;;;;;;;0.25;100.00;95822.09;6115049;23;20025;-78
2024/01/16 10:14:55;;;;;;;0.20;0.20;;;;;;;0.16;100.00;95828.53;6133912;23;20031;-77
2024/01/16 10:17:42;;;;;;;0.20;0.20;;;;;;;0.22;100.00;95833.00;6138065;23;20025;-78
2024/01/16 10:20:36;;;;;;;0.30;0.30;;;;;;;0.52;100.00;95818.47;6138625;23;20026;-76
2024/01/16 10:23:28;;;;;;;0.20;0.20;;;;;;;1.05;100.00;95801.88;6136096;23;20136;-77
2024/01/16 10:26:14;;;;;;;0.20;0.20;;;;;;;1.64;100.00;95812.28;6135712;23;20025;-78
2024/01/16 10:29:04;;;;;;;0.30;0.30;;;;;;;2.29;100.00;95801.63;6137479;23;20475;-77
2024/01/16 10:31:50;;;;;;;0.30;0.30;;;;;;;2.59;100.00;95811.59;6137436;23;20021;-77
2024/01/16 10:34:36;;;;;;;0.20;0.20;;;;;;;2.63;100.00;95810.94;6138530;23;20021;-77
2024/01/16 10:37:22;;;;;;;0.20;0.20;;;;;;;2.78;100.00;95794.78;6115682;23;20057;-77
2024/01/16 10:40:08;;;;;;;0.30;0.30;;;;;;;3.62;100.00;95796.81;6136580;23;20029;-77
2024/01/16 10:42:58;;;;;;;0.30;0.30;;;;;;;4.04;100.00;95790.81;6138382;23;20286;-78
2024/01/16 10:45:44;;;;;;;0.20;0.20;;;;;;;4.92;100.00;95787.53;6137153;23;20053;-77
2024/01/16 10:48:33;;;;;;;0.30;0.30;;;;;;;4.93;100.00;95779.34;6137910;23;20120;-77
2024/01/16 10:51:20;;;;;;;0.20;0.20;;;;;;;4.72;100.00;95780.69;6134410;23;20074;-77
2024/01/16 10:54:08;;;;;;;0.22;0.22;;;;;;;4.49;100.00;95772.69;6136443;23;20339;-78
2024/01/16 10:56:57;;;;;;;0.25;0.25;;;;;;;3.57;100.00;95764.91;6076892;23;20026;-77
2024/01/16 11:00:04;;;;;;;0.30;0.30;;;;;;;2.85;100.00;95766.47;6135186;23;20064;-76
2024/01/16 11:02:54;;;;;;;0.20;0.20;;;;;;;2.93;100.00;95758.25;6101386;23;20017;-77
2024/01/16 11:05:40;;;;;;;0.30;0.30;;;;;;;3.29;100.00;95751.41;6108563;23;20080;-76
2024/01/16 11:08:30;;;;;;;0.20;0.20;;;;;;;3.59;100.00;95736.41;6107018;23;20026;-77
2024/01/16 11:11:17;;;;;;;0.30;0.30;;;;;;;4.22;100.00;95744.97;6108334;23;20022;-77
2024/01/16 11:14:03;;;;;;;0.25;0.25;;;;;;;5.43;100.00;95736.41;6107960;23;20076;-78
2024/01/16 11:16:49;;;;;;;0.20;0.20;;;;;;;5.31;94.34;95738.28;6106976;23;20080;-77
2024/01/16 11:19:35;;;;;;;0.30;0.30;;;;;;;5.10;89.88;95723.78;6106701;23;20271;-77
2024/01/16 11:22:22;;;;;;;0.57;0.40;;;;;;;8.57;86.88;95717.50;6109679;23;20037;-76
2024/01/16 11:25:11;;;;;;;0.38;0.38;;;;;;;12.01;49.10;95708.16;6106819;23;20207;-78
2024/01/16 11:28:08;;;;;;;0.30;0.30;;;;;;;11.50;45.37;95701.06;6103829;23;20425;-77
2024/01/16 11:30:53;;;;;;;0.30;0.30;;;;;;;11.80;51.74;95697.50;6117267;23;20028;-77
2024/01/16 11:33:39;;;;;;;0.30;0.30;;;;;;;12.92;44.76;95694.16;6136230;23;20025;-77
2024/01/16 11:36:54;;;;;;;0.30;0.30;;;;;;;12.66;40.30;95690.03;6137411;23;20028;-77
2024/01/16 11:39:40;;;;;;;0.20;0.20;;;;;;;11.96;46.20;95695.56;6136811;23;20025;-78
2024/01/16 11:42:29;;;;;;;0.20;0.20;;;;;;;11.23;50.11;95681.84;6134890;23;20029;-78
2024/01/16 11:45:38;;;;;;;0.45;0.40;;;;;;;13.62;40.61;95678.44;6135206;23;20502;-77
2024/01/16 11:48:24;;;;;;;0.40;0.40;;;;;;;16.19;37.76;95674.06;6132543;23;20028;-77
2024/01/16 11:51:24;;;;;;;0.20;0.20;;;;;;;15.52;36.95;95667.25;6096657;23;20127;-78
2024/01/16 11:54:10;;;;;;;0.38;0.32;;;;;;;16.84;32.77;95669.06;6090123;23;20018;-77
2024/01/16 11:57:20;;;;;;;0.32;0.30;;;;;;;17.95;33.83;95671.88;6066323;23;20705;-78
2024/01/16 12:00:12;;;;;;;0.30;0.30;;;;;;;19.28;31.25;95655.03;6132817;23;20382;-78
2024/01/16 12:03:04;;;;;;;0.30;0.30;;;;;;;19.98;27.42;95648.25;6112158;23;20366;-79
2024/01/16 12:05:57;;;;;;;0.30;0.30;;;;;;;18.77;29.95;95662.16;5886122;23;20810;-76
2024/01/16 12:08:43;;;;;;;0.30;0.30;;;;;;;19.76;29.68;95657.47;6070380;23;20432;-77
2024/01/16 12:11:29;;;;;;;0.20;0.20;;;;;;;19.03;26.92;95671.06;6135901;23;20100;-77
2024/01/16 12:14:14;;;;;;;0.30;0.30;;;;;;;17.39;34.27;95667.97;6132283;23;20029;-78
2024/01/16 12:17:10;;;;;;;0.20;0.20;;;;;;;14.51;32.11;95677.03;6113509;23;20029;-77
2024/01/16 12:19:56;;;;;;;0.20;0.20;;;;;;;13.08;37.06;95671.44;6135939;23;20052;-76
2024/01/16 12:22:43;;;;;;;0.20;0.20;;;;;;;12.02;40.80;95673.00;6134421;23;20017;-77
2024/01/16 12:25:36;;;;;;;0.20;0.20;;;;;;;11.47;44.52;95674.00;6135348;23;20441;-76
2024/01/16 12:28:22;;;;;;;0.30;0.30;;;;;;;12.06;44.18;95652.63;6111809;23;20128;-76
2024/01/16 12:31:08;;;;;;;0.50;0.40;;;;;;;15.58;38.73;95641.78;6132964;23;20349;-77
2024/01/16 12:34:07;;;;;;;0.40;0.40;;;;;;;17.94;29.04;95635.09;6135201;23;20407;-77
2024/01/16 12:37:05;;;;;;;0.50;0.40;;;;;;;20.04;27.14;95614.38;6134744;23;20464;-77
2024/01/16 12:39:52;;;;;;;0.40;0.38;;;;;;;21.04;29.80;95609.91;6136325;23;20030;-77
2024/01/16 12:42:38;;;;;;;0.32;0.32;;;;;;;20.77;24.49;95603.13;6136638;23;20111;-77
2024/01/16 12:45:24;;;;;;;0.30;0.30;;;;;;;21.48;25.57;95604.81;6114021;23;20036;-76
2024/01/16 12:48:09;;;;;;;0.30;0.30;;;;;;;22.67;26.48;95592.56;6135378;23;20032;-78
2024/01/16 12:51:02;;;;;;;0.30;0.30;;;;;;;23.08;24.52;95591.38;6137148;23;20021;-77
2024/01/16 12:53:49;;;;;;;0.30;0.30;;;;;;;22.17;25.53;95591.09;6135523;23;20049;-78
2024/01/16 12:56:34;;;;;;;0.30;0.30;;;;;;;21.86;24.18;95590.88;6135102;23;20082;-78
2024/01/16 12:59:29;;;;;;;0.30;0.30;;;;;;;21.30;24.42;95582.47;6130104;23;20040;-79